sensor_id;sensor_type;location;lat;lon;timestamp;pressure;altitude;pressure_sealevel;temperature;humidity
60015;BME280;45867;52.480;6.056;2023-05-24T00:00:58;102427.06;;;6.09;100.00
60015;BME280;45867;52.480;6.056;2023-05-24T00:03:24;102421.56;;;6.04;100.00
60015;BME280;45867;52.480;6.056;2023-05-24T00:05:49;102423.16;;;5.98;100.00
60015;BME280;45867;52.480;6.056;2023-05-24T00:08:16;102421.47;;;5.91;100.00
60015;BME280;45867;52.480;6.056;2023-05-24T00:10:41;102416.81;;;5.93;100.00
60015;BME280;45867;52.480;6.056;2023-05-24T00:13:07;102416.41;;;5.89;100.00
60015;BME280;45867;52.480;6.056;2023-05-24T00:15:32;102411.09;;;5.83;100.00
60015;BME280;45867;52.480;6.056;2023-05-24T00:17:57;102405.63;;;5.77;100.00
60015;BME280;45867;52.480;6.056;2023-05-24T00:20:23;102419.72;;;5.70;100.00
60015;BME280;45867;52.480;6.056;2023-05-24T00:22:48;102415.66;;;5.61;100.00
60015;BME280;45867;52.480;6.056;2023-05-24T00:25:13;102415.00;;;5.52;100.00
60015;BME280;45867;52.480;6.056;2023-05-24T00:27:39;102406.06;;;5.46;100.00
60015;BME280;45867;52.480;6.056;2023-05-24T00:30:05;102418.25;;;5.54;100.00
60015;BME280;45867;52.480;6.056;2023-05-24T00:32:31;102410.78;;;5.57;100.00
60015;BME280;45867;52.480;6.056;2023-05-24T00:34:56;102407.63;;;5.75;100.00
60015;BME280;45867;52.480;6.056;2023-05-24T00:37:22;102406.88;;;5.82;100.00
60015;BME280;45867;52.480;6.056;2023-05-24T00:39:47;102399.19;;;5.87;100.00
60015;BME280;45867;52.480;6.056;2023-05-24T00:42:12;102403.44;;;5.88;100.00
60015;BME280;45867;52.480;6.056;2023-05-24T00:44:38;102402.00;;;5.85;100.00
60015;BME280;45867;52.480;6.056;2023-05-24T00:47:06;102393.47;;;5.76;100.00
60015;BME280;45867;52.480;6.056;2023-05-24T00:49:31;102385.75;;;5.68;100.00
60015;BME280;45867;52.480;6.056;2023-05-24T00:51:57;102390.00;;;5.69;100.00
60015;BME280;45867;52.480;6.056;2023-05-24T00:54:23;102387.13;;;5.64;100.00
60015;BME280;45867;52.480;6.056;2023-05-24T00:56:50;102381.63;;;5.59;100.00
60015;BME280;45867;52.480;6.056;2023-05-24T00:59:15;102386.31;;;5.64;100.00
60015;BME280;45867;52.480;6.056;2023-05-24T01:01:41;102388.53;;;5.60;100.00
60015;BME280;45867;52.480;6.056;2023-05-24T01:04:06;102383.91;;;5.62;100.00
60015;BME280;45867;52.480;6.056;2023-05-24T01:06:48;102382.47;;;5.60;100.00
60015;BME280;45867;52.480;6.056;2023-05-24T01:09:22;102384.28;;;5.59;100.00
60015;BME280;45867;52.480;6.056;2023-05-24T01:12:10;102381.13;;;5.70;100.00
60015;BME280;45867;52.480;6.056;2023-05-24T01:17:22;102369.56;;;5.65;100.00
60015;BME280;45867;52.480;6.056;2023-05-24T01:20:06;102374.13;;;5.49;100.00
60015;BME280;45867;52.480;6.056;2023-05-24T01:23:27;102365.81;;;5.46;100.00
60015;BME280;45867;52.480;6.056;2023-05-24T01:28:30;102368.59;;;5.38;100.00
60015;BME280;45867;52.480;6.056;2023-05-24T01:30:57;102372.22;;;5.37;100.00
60015;BME280;45867;52.480;6.056;2023-05-24T01:33:24;102376.00;;;5.27;100.00
60015;BME280;45867;52.480;6.056;2023-05-24T01:35:51;102375.78;;;5.22;100.00
60015;BME280;45867;52.480;6.056;2023-05-24T01:38:16;102380.41;;;5.20;100.00
60015;BME280;45867;52.480;6.056;2023-05-24T01:40:42;102383.25;;;5.19;100.00
60015;BME280;45867;52.480;6.056;2023-05-24T01:43:15;102381.00;;;5.16;100.00
60015;BME280;45867;52.480;6.056;2023-05-24T01:46:10;102376.97;;;5.20;100.00
60015;BME280;45867;52.480;6.056;2023-05-24T01:48:51;102382.84;;;5.22;100.00
60015;BME280;45867;52.480;6.056;2023-05-24T01:51:21;102383.75;;;5.36;100.00
60015;BME280;45867;52.480;6.056;2023-05-24T01:53:48;102388.56;;;5.67;100.00
60015;BME280;45867;52.480;6.056;2023-05-24T01:56:16;102363.06;;;5.61;100.00
60015;BME280;45867;52.480;6.056;2023-05-24T01:58:45;102374.22;;;5.69;100.00
60015;BME280;45867;52.480;6.056;2023-05-24T02:01:11;102377.88;;;5.75;100.00
60015;BME280;45867;52.480;6.056;2023-05-24T02:03:40;102373.44;;;5.75;100.00
60015;BME280;45867;52.480;6.056;2023-05-24T02:06:05;102369.00;;;5.76;100.00
60015;BME280;45867;52.480;6.056;2023-05-24T02:08:31;102360.28;;;5.75;100.00
60015;BME280;45867;52.480;6.056;2023-05-24T02:10:56;102352.19;;;5.70;100.00
60015;BME280;45867;52.480;6.056;2023-05-24T02:13:21;102358.81;;;5.66;100.00
60015;BME280;45867;52.480;6.056;2023-05-24T02:15:47;102353.97;;;5.63;100.00
60015;BME280;45867;52.480;6.056;2023-05-24T02:18:12;102354.13;;;5.62;100.00
60015;BME280;45867;52.480;6.056;2023-05-24T02:20:38;102352.13;;;5.64;100.00
60015;BME280;45867;52.480;6.056;2023-05-24T02:23:04;102343.44;;;5.56;100.00
60015;BME280;45867;52.480;6.056;2023-05-24T02:25:30;102338.38;;;5.62;100.00
60015;BME280;45867;52.480;6.056;2023-05-24T02:27:58;102350.28;;;5.57;100.00
60015;BME280;45867;52.480;6.056;2023-05-24T02:30:24;102347.66;;;5.57;100.00
60015;BME280;45867;52.480;6.056;2023-05-24T02:32:50;102342.81;;;5.54;100.00
60015;BME280;45867;52.480;6.056;2023-05-24T02:35:15;102348.84;;;5.48;100.00
60015;BME280;45867;52.480;6.056;2023-05-24T02:37:41;102354.28;;;5.47;100.00
60015;BME280;45867;52.480;6.056;2023-05-24T02:40:06;102357.97;;;5.59;100.00
60015;BME280;45867;52.480;6.056;2023-05-24T02:42:32;102338.56;;;5.60;100.00
60015;BME280;45867;52.480;6.056;2023-05-24T02:44:57;102338.38;;;5.62;100.00
60015;BME280;45867;52.480;6.056;2023-05-24T02:47:23;102345.44;;;5.54;100.00
60015;BME280;45867;52.480;6.056;2023-05-24T02:49:51;102336.72;;;5.54;100.00
60015;BME280;45867;52.480;6.056;2023-05-24T02:52:16;102336.34;;;5.57;100.00
60015;BME280;45867;52.480;6.056;2023-05-24T02:54:45;102337.16;;;5.57;100.00
60015;BME280;45867;52.480;6.056;2023-05-24T02:57:11;102330.06;;;5.58;100.00
60015;BME280;45867;52.480;6.056;2023-05-24T02:59:36;102335.72;;;5.62;100.00
60015;BME280;45867;52.480;6.056;2023-05-24T03:02:02;102335.53;;;5.56;100.00
60015;BME280;45867;52.480;6.056;2023-05-24T03:04:27;102331.47;;;5.54;100.00
60015;BME280;45867;52.480;6.056;2023-05-24T03:06:52;102337.16;;;5.57;100.00
60015;BME280;45867;52.480;6.056;2023-05-24T03:09:18;102339.56;;;5.59;100.00
60015;BME280;45867;52.480;6.056;2023-05-24T03:11:43;102336.56;;;5.62;100.00
60015;BME280;45867;52.480;6.056;2023-05-24T03:14:09;102330.69;;;5.60;100.00
60015;BME280;45867;52.480;6.056;2023-05-24T03:16:35;102330.88;;;5.59;100.00
60015;BME280;45867;52.480;6.056;2023-05-24T03:19:01;102326.22;;;5.61;100.00
60015;BME280;45867;52.480;6.056;2023-05-24T03:21:26;102324.00;;;5.64;100.00
60015;BME280;45867;52.480;6.056;2023-05-24T03:23:51;102306.00;;;5.54;100.00
60015;BME280;45867;52.480;6.056;2023-05-24T03:26:17;102325.81;;;5.57;100.00
60015;BME280;45867;52.480;6.056;2023-05-24T03:28:45;102323.53;;;5.47;100.00
60015;BME280;45867;52.480;6.056;2023-05-24T03:31:12;102324.13;;;5.43;100.00
60015;BME280;45867;52.480;6.056;2023-05-24T03:33:37;102326.97;;;5.48;100.00
60015;BME280;45867;52.480;6.056;2023-05-24T03:36:04;102318.69;;;5.51;100.00
60015;BME280;45867;52.480;6.056;2023-05-24T03:38:29;102320.50;;;5.50;100.00
60015;BME280;45867;52.480;6.056;2023-05-24T03:40:56;102322.38;;;5.56;100.00
60015;BME280;45867;52.480;6.056;2023-05-24T03:43:21;102318.75;;;5.57;100.00
60015;BME280;45867;52.480;6.056;2023-05-24T03:45:46;102324.22;;;5.63;100.00
60015;BME280;45867;52.480;6.056;2023-05-24T03:48:12;102323.19;;;5.57;100.00
60015;BME280;45867;52.480;6.056;2023-05-24T03:50:37;102320.97;;;5.61;100.00
60015;BME280;45867;52.480;6.056;2023-05-24T03:53:03;102319.75;;;5.56;100.00
60015;BME280;45867;52.480;6.056;2023-05-24T03:55:28;102324.00;;;5.57;100.00
60015;BME280;45867;52.480;6.056;2023-05-24T03:57:53;102326.41;;;5.59;100.00
60015;BME280;45867;52.480;6.056;2023-05-24T04:00:19;102316.28;;;5.49;100.00
60015;BME280;45867;52.480;6.056;2023-05-24T04:02:44;102328.63;;;5.49;100.00
60015;BME280;45867;52.480;6.056;2023-05-24T04:05:10;102333.09;;;5.55;100.00
60015;BME280;45867;52.480;6.056;2023-05-24T04:07:38;102331.88;;;5.57;100.00
60015;BME280;45867;52.480;6.056;2023-05-24T04:10:05;102337.31;;;5.56;100.00
60015;BME280;45867;52.480;6.056;2023-05-24T04:12:31;102336.94;;;5.59;100.00
60015;BME280;45867;52.480;6.056;2023-05-24T04:14:57;102333.53;;;5.65;100.00
60015;BME280;45867;52.480;6.056;2023-05-24T04:17:23;102329.50;;;5.69;100.00
60015;BME280;45867;52.480;6.056;2023-05-24T04:19:49;102324.69;;;5.73;100.00
60015;BME280;45867;52.480;6.056;2023-05-24T04:22:15;102330.13;;;5.78;100.00
60015;BME280;45867;52.480;6.056;2023-05-24T04:24:42;102327.13;;;5.81;100.00
60015;BME280;45867;52.480;6.056;2023-05-24T04:27:08;102322.91;;;5.87;100.00
60015;BME280;45867;52.480;6.056;2023-05-24T04:29:34;102326.97;;;5.89;100.00
60015;BME280;45867;52.480;6.056;2023-05-24T04:31:59;102326.75;;;5.91;100.00
60015;BME280;45867;52.480;6.056;2023-05-24T04:34:25;102322.94;;;6.00;100.00
60015;BME280;45867;52.480;6.056;2023-05-24T04:36:50;102319.53;;;6.06;100.00
60015;BME280;45867;52.480;6.056;2023-05-24T04:39:17;102327.25;;;6.21;100.00
60015;BME280;45867;52.480;6.056;2023-05-24T04:41:43;102323.44;;;6.30;100.00
60015;BME280;45867;52.480;6.056;2023-05-24T04:44:09;102320.19;;;6.35;100.00
60015;BME280;45867;52.480;6.056;2023-05-24T04:46:34;102322.00;;;6.41;100.00
60015;BME280;45867;52.480;6.056;2023-05-24T04:49:00;102328.91;;;6.49;100.00
60015;BME280;45867;52.480;6.056;2023-05-24T04:51:26;102307.03;;;6.48;100.00
60015;BME280;45867;52.480;6.056;2023-05-24T04:53:51;102307.84;;;6.62;100.00
60015;BME280;45867;52.480;6.056;2023-05-24T04:56:20;102313.72;;;6.77;100.00
60015;BME280;45867;52.480;6.056;2023-05-24T04:58:46;102305.63;;;6.85;100.00
60015;BME280;45867;52.480;6.056;2023-05-24T05:01:12;102303.34;;;7.02;100.00
60015;BME280;45867;52.480;6.056;2023-05-24T05:03:40;102308.19;;;7.19;100.00
60015;BME280;45867;52.480;6.056;2023-05-24T05:06:06;102309.75;;;7.33;100.00
60015;BME280;45867;52.480;6.056;2023-05-24T05:08:31;102300.81;;;7.41;100.00
60015;BME280;45867;52.480;6.056;2023-05-24T05:10:56;102305.19;;;7.60;100.00
60015;BME280;45867;52.480;6.056;2023-05-24T05:13:22;102293.66;;;7.61;100.00
60015;BME280;45867;52.480;6.056;2023-05-24T05:15:48;102314.00;;;7.92;100.00
60015;BME280;45867;52.480;6.056;2023-05-24T05:18:13;102301.94;;;8.03;100.00
60015;BME280;45867;52.480;6.056;2023-05-24T05:20:39;102314.13;;;8.36;100.00
60015;BME280;45867;52.480;6.056;2023-05-24T05:23:04;102318.47;;;8.80;100.00
60015;BME280;45867;52.480;6.056;2023-05-24T05:25:30;102303.81;;;9.21;100.00
60015;BME280;45867;52.480;6.056;2023-05-24T05:27:55;102315.06;;;9.53;100.00
60015;BME280;45867;52.480;6.056;2023-05-24T05:30:20;102310.88;;;10.06;100.00
60015;BME280;45867;52.480;6.056;2023-05-24T05:32:46;102320.78;;;10.41;100.00
60015;BME280;45867;52.480;6.056;2023-05-24T05:35:11;102328.53;;;11.01;100.00
60015;BME280;45867;52.480;6.056;2023-05-24T05:37:36;102332.94;;;10.96;100.00
60015;BME280;45867;52.480;6.056;2023-05-24T05:40:02;102331.91;;;11.08;100.00
60015;BME280;45867;52.480;6.056;2023-05-24T05:42:28;102337.97;;;11.32;100.00
60015;BME280;45867;52.480;6.056;2023-05-24T05:44:54;102345.53;;;11.52;100.00
60015;BME280;45867;52.480;6.056;2023-05-24T05:47:25;102356.56;;;11.32;100.00
60015;BME280;45867;52.480;6.056;2023-05-24T05:49:50;102356.56;;;11.32;100.00
60015;BME280;45867;52.480;6.056;2023-05-24T05:52:16;102374.22;;;11.79;100.00
60015;BME280;45867;52.480;6.056;2023-05-24T05:54:41;102375.44;;;12.00;100.00
60015;BME280;45867;52.480;6.056;2023-05-24T05:57:06;102384.84;;;12.19;100.00
60015;BME280;45867;52.480;6.056;2023-05-24T05:59:34;102391.09;;;12.42;100.00
60015;BME280;45867;52.480;6.056;2023-05-24T06:02:00;102400.97;;;12.47;100.00
60015;BME280;45867;52.480;6.056;2023-05-24T06:04:26;102399.25;;;12.52;100.00
60015;BME280;45867;52.480;6.056;2023-05-24T06:06:51;102408.81;;;12.36;100.00
60015;BME280;45867;52.480;6.056;2023-05-24T06:09:16;102406.41;;;12.85;100.00
60015;BME280;45867;52.480;6.056;2023-05-24T06:11:42;102416.63;;;13.10;100.00
60015;BME280;45867;52.480;6.056;2023-05-24T06:14:10;102415.59;;;12.95;100.00
60015;BME280;45867;52.480;6.056;2023-05-24T06:16:36;102423.91;;;12.81;100.00
60015;BME280;45867;52.480;6.056;2023-05-24T06:19:06;102420.44;;;12.98;100.00
60015;BME280;45867;52.480;6.056;2023-05-24T06:21:31;102419.69;;;13.19;100.00
60015;BME280;45867;52.480;6.056;2023-05-24T06:23:57;102426.94;;;13.24;100.00
60015;BME280;45867;52.480;6.056;2023-05-24T06:26:24;102431.63;;;13.17;100.00
60015;BME280;45867;52.480;6.056;2023-05-24T06:28:55;102425.66;;;13.43;100.00
60015;BME280;45867;52.480;6.056;2023-05-24T06:31:20;102421.69;;;13.46;100.00
60015;BME280;45867;52.480;6.056;2023-05-24T06:33:46;102435.31;;;13.71;100.00
60015;BME280;45867;52.480;6.056;2023-05-24T06:36:11;102433.06;;;13.24;100.00
60015;BME280;45867;52.480;6.056;2023-05-24T06:38:36;102441.31;;;12.72;100.00
60015;BME280;45867;52.480;6.056;2023-05-24T06:41:02;102438.00;;;12.19;100.00
60015;BME280;45867;52.480;6.056;2023-05-24T06:43:27;102431.91;;;12.07;100.00
60015;BME280;45867;52.480;6.056;2023-05-24T06:45:53;102449.88;;;11.88;100.00
60015;BME280;45867;52.480;6.056;2023-05-24T06:48:30;102440.94;;;11.94;100.00
60015;BME280;45867;52.480;6.056;2023-05-24T06:50:55;102445.16;;;12.19;100.00
60015;BME280;45867;52.480;6.056;2023-05-24T06:53:21;102449.31;;;12.89;100.00
60015;BME280;45867;52.480;6.056;2023-05-24T06:55:46;102450.97;;;13.12;100.00
60015;BME280;45867;52.480;6.056;2023-05-24T06:58:11;102459.53;;;12.97;100.00
60015;BME280;45867;52.480;6.056;2023-05-24T07:00:41;102450.50;;;12.81;100.00
60015;BME280;45867;52.480;6.056;2023-05-24T07:03:07;102452.13;;;12.99;100.00
60015;BME280;45867;52.480;6.056;2023-05-24T07:05:33;102448.66;;;13.16;100.00
60015;BME280;45867;52.480;6.056;2023-05-24T07:07:59;102451.97;;;12.89;100.00
60015;BME280;45867;52.480;6.056;2023-05-24T07:10:25;102454.72;;;12.77;100.00
60015;BME280;45867;52.480;6.056;2023-05-24T07:12:50;102449.69;;;12.81;100.00
60015;BME280;45867;52.480;6.056;2023-05-24T07:15:16;102455.41;;;12.56;100.00
60015;BME280;45867;52.480;6.056;2023-05-24T07:17:41;102451.75;;;12.45;100.00
60015;BME280;45867;52.480;6.056;2023-05-24T07:20:07;102456.06;;;12.34;100.00
60015;BME280;45867;52.480;6.056;2023-05-24T07:22:36;102448.41;;;12.38;100.00
60015;BME280;45867;52.480;6.056;2023-05-24T07:25:01;102441.94;;;12.62;100.00
60015;BME280;45867;52.480;6.056;2023-05-24T07:27:27;102456.56;;;12.94;100.00
60015;BME280;45867;52.480;6.056;2023-05-24T07:29:52;102452.38;;;12.98;100.00
60015;BME280;45867;52.480;6.056;2023-05-24T07:32:18;102456.44;;;14.22;100.00
60015;BME280;45867;52.480;6.056;2023-05-24T07:34:43;102463.25;;;15.31;100.00
60015;BME280;45867;52.480;6.056;2023-05-24T07:37:09;102455.69;;;16.44;100.00
60015;BME280;45867;52.480;6.056;2023-05-24T07:39:34;102467.72;;;17.44;100.00
60015;BME280;45867;52.480;6.056;2023-05-24T07:41:59;102474.91;;;17.53;100.00
60015;BME280;45867;52.480;6.056;2023-05-24T07:44:25;102472.00;;;17.45;100.00
60015;BME280;45867;52.480;6.056;2023-05-24T07:46:51;102478.38;;;17.59;100.00
60015;BME280;45867;52.480;6.056;2023-05-24T07:49:16;102467.53;;;17.95;100.00
60015;BME280;45867;52.480;6.056;2023-05-24T07:51:41;102480.03;;;17.50;100.00
60015;BME280;45867;52.480;6.056;2023-05-24T07:54:07;102477.66;;;16.56;100.00
60015;BME280;45867;52.480;6.056;2023-05-24T07:56:33;102475.28;;;16.70;100.00
60015;BME280;45867;52.480;6.056;2023-05-24T07:58:58;102479.50;;;16.40;100.00
60015;BME280;45867;52.480;6.056;2023-05-24T08:01:31;102477.31;;;15.59;100.00
60015;BME280;45867;52.480;6.056;2023-05-24T08:03:58;102479.84;;;15.34;100.00
60015;BME280;45867;52.480;6.056;2023-05-24T08:06:24;102485.19;;;15.34;100.00
60015;BME280;45867;52.480;6.056;2023-05-24T08:08:49;102482.13;;;15.15;100.00
60015;BME280;45867;52.480;6.056;2023-05-24T08:11:15;102476.81;;;14.33;100.00
60015;BME280;45867;52.480;6.056;2023-05-24T08:13:40;102468.31;;;14.36;100.00
60015;BME280;45867;52.480;6.056;2023-05-24T08:16:06;102470.16;;;14.58;100.00
60015;BME280;45867;52.480;6.056;2023-05-24T08:18:31;102465.44;;;14.65;100.00
60015;BME280;45867;52.480;6.056;2023-05-24T08:20:57;102479.53;;;14.60;100.00
60015;BME280;45867;52.480;6.056;2023-05-24T08:23:22;102469.06;;;14.32;100.00
60015;BME280;45867;52.480;6.056;2023-05-24T08:25:48;102471.53;;;14.38;100.00
60015;BME280;45867;52.480;6.056;2023-05-24T08:28:13;102482.44;;;14.59;100.00
60015;BME280;45867;52.480;6.056;2023-05-24T08:30:41;102470.72;;;14.60;100.00
60015;BME280;45867;52.480;6.056;2023-05-24T08:33:07;102478.28;;;14.19;100.00
60015;BME280;45867;52.480;6.056;2023-05-24T08:35:33;102482.69;;;14.08;100.00
60015;BME280;45867;52.480;6.056;2023-05-24T08:38:00;102476.66;;;13.96;100.00
60015;BME280;45867;52.480;6.056;2023-05-24T08:40:25;102480.94;;;13.75;100.00
60015;BME280;45867;52.480;6.056;2023-05-24T08:42:51;102484.06;;;13.89;100.00
60015;BME280;45867;52.480;6.056;2023-05-24T08:45:17;102476.66;;;13.74;100.00
60015;BME280;45867;52.480;6.056;2023-05-24T08:47:43;102480.97;;;13.97;100.00
60015;BME280;45867;52.480;6.056;2023-05-24T08:50:09;102477.84;;;14.05;100.00
60015;BME280;45867;52.480;6.056;2023-05-24T08:52:35;102478.28;;;14.19;100.00
60015;BME280;45867;52.480;6.056;2023-05-24T08:55:01;102478.28;;;14.19;100.00
60015;BME280;45867;52.480;6.056;2023-05-24T08:57:29;102477.41;;;14.13;100.00
60015;BME280;45867;52.480;6.056;2023-05-24T08:59:55;102477.72;;;14.17;100.00
60015;BME280;45867;52.480;6.056;2023-05-24T09:02:21;102495.66;;;14.49;100.00
60015;BME280;45867;52.480;6.056;2023-05-24T09:04:49;102491.28;;;14.64;100.00
60015;BME280;45867;52.480;6.056;2023-05-24T09:07:17;102492.28;;;14.85;100.00
60015;BME280;45867;52.480;6.056;2023-05-24T09:09:47;102485.97;;;14.97;100.00
60015;BME280;45867;52.480;6.056;2023-05-24T09:12:15;102482.00;;;14.99;100.00
60015;BME280;45867;52.480;6.056;2023-05-24T09:14:45;102494.88;;;15.07;100.00
60015;BME280;45867;52.480;6.056;2023-05-24T09:17:11;102494.84;;;15.40;100.00
60015;BME280;45867;52.480;6.056;2023-05-24T09:19:42;102494.63;;;15.51;100.00
60015;BME280;45867;52.480;6.056;2023-05-24T09:22:08;102495.03;;;15.70;100.00
60015;BME280;45867;52.480;6.056;2023-05-24T09:24:46;102493.53;;;15.95;100.00
60015;BME280;45867;52.480;6.056;2023-05-24T09:27:14;102501.81;;;16.82;100.00
60015;BME280;45867;52.480;6.056;2023-05-24T09:29:40;102503.66;;;17.17;100.00
60015;BME280;45867;52.480;6.056;2023-05-24T09:32:08;102506.88;;;16.89;100.00
60015;BME280;45867;52.480;6.056;2023-05-24T09:34:41;102502.00;;;17.47;100.00
60015;BME280;45867;52.480;6.056;2023-05-24T09:37:13;102487.66;;;18.47;100.00
60015;BME280;45867;52.480;6.056;2023-05-24T09:39:45;102496.72;;;18.56;100.00
60015;BME280;45867;52.480;6.056;2023-05-24T09:42:16;102503.56;;;17.68;100.00
60015;BME280;45867;52.480;6.056;2023-05-24T09:44:48;102492.69;;;17.14;100.00
60015;BME280;45867;52.480;6.056;2023-05-24T09:47:14;102509.22;;;16.54;100.00
60015;BME280;45867;52.480;6.056;2023-05-24T09:49:39;102508.97;;;15.78;100.00
60015;BME280;45867;52.480;6.056;2023-05-24T09:52:05;102502.75;;;15.67;100.00
60015;BME280;45867;52.480;6.056;2023-05-24T09:54:31;102490.63;;;15.54;100.00
60015;BME280;45867;52.480;6.056;2023-05-24T09:56:59;102495.03;;;15.70;100.00
60015;BME280;45867;52.480;6.056;2023-05-24T09:59:26;102497.16;;;16.41;100.00
60015;BME280;45867;52.480;6.056;2023-05-24T10:02:01;102492.19;;;16.86;100.00
60015;BME280;45867;52.480;6.056;2023-05-24T10:04:33;102491.63;;;16.99;100.00
60015;BME280;45867;52.480;6.056;2023-05-24T10:06:59;102494.81;;;16.91;100.00
60015;BME280;45867;52.480;6.056;2023-05-24T10:09:28;102495.31;;;16.57;100.00
60015;BME280;45867;52.480;6.056;2023-05-24T10:12:03;102491.88;;;16.67;100.00
60015;BME280;45867;52.480;6.056;2023-05-24T10:14:33;102496.66;;;16.60;100.00
60015;BME280;45867;52.480;6.056;2023-05-24T10:17:01;102489.47;;;17.06;100.00
60015;BME280;45867;52.480;6.056;2023-05-24T10:19:27;102487.22;;;18.30;100.00
60015;BME280;45867;52.480;6.056;2023-05-24T10:21:55;102498.47;;;19.40;100.00
60015;BME280;45867;52.480;6.056;2023-05-24T10:24:24;102493.31;;;20.10;100.00
60015;BME280;45867;52.480;6.056;2023-05-24T10:26:51;102491.47;;;20.81;100.00
60015;BME280;45867;52.480;6.056;2023-05-24T10:32:16;102495.22;;;22.60;89.70
60015;BME280;45867;52.480;6.056;2023-05-24T10:34:44;102493.09;;;20.82;95.91
60015;BME280;45867;52.480;6.056;2023-05-24T10:37:10;102495.22;;;20.29;100.00
60015;BME280;45867;52.480;6.056;2023-05-24T10:39:36;102497.31;;;20.13;100.00
60015;BME280;45867;52.480;6.056;2023-05-24T10:42:03;102501.56;;;20.19;100.00
60015;BME280;45867;52.480;6.056;2023-05-24T10:44:29;102491.28;;;20.02;100.00
60015;BME280;45867;52.480;6.056;2023-05-24T10:47:14;102497.53;;;21.06;98.02
60015;BME280;45867;52.480;6.056;2023-05-24T10:49:53;102491.94;;;22.13;86.07
60015;BME280;45867;52.480;6.056;2023-05-24T10:52:19;102501.78;;;21.81;87.07
60015;BME280;45867;52.480;6.056;2023-05-24T10:55:00;102500.19;;;23.60;87.05
60015;BME280;45867;52.480;6.056;2023-05-24T10:57:28;102493.59;;;23.04;83.32
60015;BME280;45867;52.480;6.056;2023-05-24T10:59:56;102487.50;;;21.81;85.01
60015;BME280;45867;52.480;6.056;2023-05-24T11:02:26;102498.78;;;21.97;85.83
60015;BME280;45867;52.480;6.056;2023-05-24T11:04:52;102488.41;;;21.48;89.58
60015;BME280;45867;52.480;6.056;2023-05-24T11:07:18;102494.88;;;21.20;93.27
60015;BME280;45867;52.480;6.056;2023-05-24T11:09:46;102488.56;;;21.24;89.58
60015;BME280;45867;52.480;6.056;2023-05-24T11:12:17;102489.72;;;20.58;93.85
60015;BME280;45867;52.480;6.056;2023-05-24T11:14:47;102488.59;;;19.01;100.00
60015;BME280;45867;52.480;6.056;2023-05-24T11:17:14;102493.88;;;19.40;100.00
60015;BME280;45867;52.480;6.056;2023-05-24T11:19:50;102486.50;;;19.51;100.00
60015;BME280;45867;52.480;6.056;2023-05-24T11:22:17;102485.13;;;18.66;100.00
60015;BME280;45867;52.480;6.056;2023-05-24T11:24:44;102487.16;;;18.40;100.00
60015;BME280;45867;52.480;6.056;2023-05-24T11:27:13;102477.59;;;17.53;100.00
60015;BME280;45867;52.480;6.056;2023-05-24T11:29:42;102484.91;;;17.33;100.00
60015;BME280;45867;52.480;6.056;2023-05-24T11:32:08;102478.44;;;17.49;100.00
60015;BME280;45867;52.480;6.056;2023-05-24T11:34:34;102474.31;;;18.32;100.00
60015;BME280;45867;52.480;6.056;2023-05-24T11:37:01;102485.34;;;19.33;100.00
60015;BME280;45867;52.480;6.056;2023-05-24T11:39:30;102473.34;;;20.54;100.00
60015;BME280;45867;52.480;6.056;2023-05-24T11:41:57;102480.38;;;20.31;100.00
60015;BME280;45867;52.480;6.056;2023-05-24T11:44:23;102494.28;;;20.38;100.00
60015;BME280;45867;52.480;6.056;2023-05-24T11:46:48;102491.84;;;21.08;94.67
60015;BME280;45867;52.480;6.056;2023-05-24T11:49:15;102498.78;;;20.43;97.76
60015;BME280;45867;52.480;6.056;2023-05-24T11:51:41;102486.50;;;21.49;100.00
60015;BME280;45867;52.480;6.056;2023-05-24T11:54:07;102491.81;;;22.32;88.90
60015;BME280;45867;52.480;6.056;2023-05-24T11:56:33;102498.50;;;23.02;83.22
60015;BME280;45867;52.480;6.056;2023-05-24T11:59:15;102495.44;;;22.95;79.62
60015;BME280;45867;52.480;6.056;2023-05-24T12:01:41;102497.78;;;22.65;80.17
60015;BME280;45867;52.480;6.056;2023-05-24T12:04:07;102496.69;;;21.80;85.11
60015;BME280;45867;52.480;6.056;2023-05-24T12:06:38;102497.91;;;20.29;90.92
60015;BME280;45867;52.480;6.056;2023-05-24T12:09:04;102497.28;;;19.22;100.00
60015;BME280;45867;52.480;6.056;2023-05-24T12:11:33;102480.75;;;18.75;100.00
60015;BME280;45867;52.480;6.056;2023-05-24T12:13:59;102483.13;;;20.26;100.00
60015;BME280;45867;52.480;6.056;2023-05-24T12:16:26;102481.84;;;20.61;97.66
60015;BME280;45867;52.480;6.056;2023-05-24T12:18:54;102486.13;;;21.56;94.09
60015;BME280;45867;52.480;6.056;2023-05-24T12:21:19;102477.91;;;20.35;91.94
60015;BME280;45867;52.480;6.056;2023-05-24T12:23:46;102479.66;;;19.59;93.33
60015;BME280;45867;52.480;6.056;2023-05-24T12:26:12;102475.59;;;18.45;100.00
60015;BME280;45867;52.480;6.056;2023-05-24T12:28:38;102477.75;;;17.98;100.00
60015;BME280;45867;52.480;6.056;2023-05-24T12:31:04;102475.28;;;17.16;100.00
60015;BME280;45867;52.480;6.056;2023-05-24T12:33:30;102473.13;;;17.13;100.00
60015;BME280;45867;52.480;6.056;2023-05-24T12:35:57;102473.41;;;16.91;100.00
60015;BME280;45867;52.480;6.056;2023-05-24T12:38:26;102480.09;;;17.04;100.00
60015;BME280;45867;52.480;6.056;2023-05-24T12:40:52;102480.88;;;16.69;100.00
60015;BME280;45867;52.480;6.056;2023-05-24T12:43:18;102483.56;;;16.99;100.00
60015;BME280;45867;52.480;6.056;2023-05-24T12:45:44;102471.00;;;16.79;100.00
60015;BME280;45867;52.480;6.056;2023-05-24T12:48:09;102474.19;;;17.07;100.00
60015;BME280;45867;52.480;6.056;2023-05-24T12:50:36;102470.97;;;17.15;100.00
60015;BME280;45867;52.480;6.056;2023-05-24T12:53:01;102486.50;;;16.67;100.00